createdAt,value
2022-10-07T00:00:24.722Z,99766.69
2022-10-07T00:03:32.590Z,99758.94
2022-10-07T00:06:38.535Z,99766.94
2022-10-07T00:09:48.022Z,99764.34
2022-10-07T00:12:53.621Z,99758.38
2022-10-07T00:16:07.367Z,99761.97
2022-10-07T00:19:16.133Z,99762.13
2022-10-07T00:22:22.708Z,99759.75
2022-10-07T00:25:31.032Z,99758.09
2022-10-07T00:28:38.523Z,99760.78
2022-10-07T00:31:44.668Z,99752.13
2022-10-07T00:34:51.137Z,99756.53
2022-10-07T00:37:56.930Z,99750.53
2022-10-07T00:41:06.808Z,99748.06
2022-10-07T00:44:38.802Z,99745.38
2022-10-07T00:47:48.648Z,99742.84
2022-10-07T00:50:56.865Z,99736.00
2022-10-07T00:54:06.599Z,99735.09
2022-10-07T00:57:15.367Z,99736.91
2022-10-07T01:00:23.634Z,99732.59
2022-10-07T01:03:29.237Z,99724.72
2022-10-07T01:06:38.305Z,99725.47
2022-10-07T01:09:44.544Z,99718.53
2022-10-07T01:13:07.177Z,99719.34
2022-10-07T01:16:21.858Z,99719.38
2022-10-07T01:20:00.451Z,99715.00
2022-10-07T01:23:44.540Z,99718.56
2022-10-07T01:26:58.428Z,99708.25
2022-10-07T01:30:09.581Z,99715.25
2022-10-07T01:33:20.494Z,99705.81
2022-10-07T01:36:28.226Z,99705.09
2022-10-07T01:39:42.865Z,99705.28
2022-10-07T01:42:52.839Z,99700.06
2022-10-07T01:45:59.986Z,99702.63
2022-10-07T01:49:09.714Z,99692.16
2022-10-07T01:52:42.638Z,99705.25
2022-10-07T01:55:58.510Z,99688.72
2022-10-07T01:59:27.573Z,99690.41
2022-10-07T02:02:48.299Z,99681.75
2022-10-07T02:06:00.855Z,99688.81
2022-10-07T02:09:21.426Z,99686.19
2022-10-07T02:12:37.356Z,99688.91
2022-10-07T02:15:50.903Z,99681.13
2022-10-07T02:18:58.694Z,99671.63
2022-10-07T02:22:06.992Z,99675.19
2022-10-07T02:25:17.671Z,99672.66
2022-10-07T02:28:27.341Z,99678.81
2022-10-07T02:31:38.196Z,99671.06
2022-10-07T02:34:46.509Z,99674.63
2022-10-07T02:37:56.680Z,99666.91
2022-10-07T02:41:09.135Z,99667.06
2022-10-07T02:44:26.068Z,99670.69
2022-10-07T02:47:41.371Z,99670.88
2022-10-07T02:50:53.327Z,99671.91
2022-10-07T02:54:03.897Z,99667.78
2022-10-07T02:57:12.163Z,99660.13
2022-10-07T03:00:19.115Z,99660.38
2022-10-07T03:03:33.462Z,99664.09
2022-10-07T03:06:43.101Z,99657.31
2022-10-07T03:09:49.991Z,99661.59
2022-10-07T03:12:55.973Z,99664.22
2022-10-07T03:16:05.652Z,99656.38
2022-10-07T03:19:14.536Z,99652.88
2022-10-07T03:22:31.587Z,99660.88
2022-10-07T03:25:38.693Z,99654.03
2022-10-07T03:28:45.343Z,99654.13
2022-10-07T03:31:51.673Z,99655.06
2022-10-07T03:35:00.936Z,99650.03
2022-10-07T03:38:10.114Z,99641.34
2022-10-07T03:41:19.226Z,99650.22
2022-10-07T03:44:28.148Z,99643.31
2022-10-07T03:47:36.346Z,99649.34
2022-10-07T03:50:52.359Z,99643.31
2022-10-07T03:54:01.119Z,99643.38
2022-10-07T03:57:31.362Z,99644.31
2022-10-07T04:00:40.465Z,99641.75
2022-10-07T04:03:46.580Z,99640.13
2022-10-07T04:06:56.150Z,99633.16
2022-10-07T04:10:03.952Z,99623.63
2022-10-07T04:13:10.485Z,99618.47
2022-10-07T04:16:16.224Z,99614.06
2022-10-07T04:19:22.750Z,99621.03
2022-10-07T04:22:31.236Z,99614.00
2022-10-07T04:25:38.742Z,99610.56
2022-10-07T04:28:49.678Z,99607.03
2022-10-07T04:31:59.249Z,99604.41
2022-10-07T04:35:07.818Z,99600.00
2022-10-07T04:38:18.275Z,99596.50
2022-10-07T04:41:25.827Z,99594.97
2022-10-07T04:44:32.627Z,99599.38
2022-10-07T04:47:44.335Z,99598.47
2022-10-07T04:50:52.103Z,99591.41
2022-10-07T04:54:03.746Z,99593.16
2022-10-07T04:57:28.408Z,99591.56
2022-10-07T05:00:36.069Z,99579.53
2022-10-07T05:03:43.805Z,99591.03
2022-10-07T05:06:50.199Z,99588.69
2022-10-07T05:09:59.760Z,99583.53
2022-10-07T05:13:09.601Z,99576.66
2022-10-07T05:16:16.291Z,99582.53
2022-10-07T05:19:22.393Z,99581.59
2022-10-07T05:22:29.341Z,99583.34
2022-10-07T05:25:38.471Z,99589.44
2022-10-07T05:28:47.111Z,99586.81
2022-10-07T05:31:58.781Z,99586.75
2022-10-07T05:35:12.147Z,99588.44
2022-10-07T05:38:18.014Z,99578.88
2022-10-07T05:41:28.442Z,99578.72
2022-10-07T05:44:35.380Z,99583.06
2022-10-07T05:47:43.841Z,99586.53
2022-10-07T05:50:50.914Z,99580.19
2022-10-07T05:53:58.578Z,99576.41
2022-10-07T05:57:13.535Z,99578.63
2022-10-07T06:00:21.149Z,99574.97
2022-10-07T06:03:30.088Z,99564.47
2022-10-07T06:06:38.860Z,99559.03
2022-10-07T06:10:03.766Z,99562.28
2022-10-07T06:13:14.159Z,99570.75
2022-10-07T06:16:27.373Z,99570.28
2022-10-07T06:19:34.532Z,99566.31
2022-10-07T06:22:43.099Z,99569.38
2022-10-07T06:25:55.934Z,99564.56
2022-10-07T06:29:07.138Z,99563.41
2022-10-07T06:32:13.850Z,99556.09
2022-10-07T06:35:20.670Z,99555.69
2022-10-07T06:38:29.360Z,99560.53
2022-10-07T06:41:35.079Z,99554.09
2022-10-07T06:44:53.991Z,99549.38
2022-10-07T06:48:03.895Z,99555.03
2022-10-07T06:51:15.751Z,99556.47
2022-10-07T06:54:21.923Z,99553.44
2022-10-07T06:57:44.936Z,99550.44
2022-10-07T07:00:55.263Z,99541.19
2022-10-07T07:04:03.705Z,99535.56
2022-10-07T07:07:10.382Z,99540.63
2022-10-07T07:10:18.852Z,99543.06
2022-10-07T07:13:29.666Z,99553.22
2022-10-07T07:16:39.190Z,99546.75
2022-10-07T07:19:44.965Z,99548.06
2022-10-07T07:22:52.581Z,99544.03
2022-10-07T07:25:58.319Z,99546.28
2022-10-07T07:29:12.536Z,99539.75
2022-10-07T07:32:30.303Z,99541.00
2022-10-07T07:35:41.644Z,99541.41
2022-10-07T07:38:54.011Z,99541.06
2022-10-07T07:42:04.047Z,99533.84
2022-10-07T07:45:12.399Z,99529.94
2022-10-07T07:48:22.027Z,99522.38
2022-10-07T07:51:28.613Z,99522.00
2022-10-07T07:54:37.761Z,99518.13
2022-10-07T07:57:44.251Z,99512.41
2022-10-07T08:01:01.098Z,99501.31
2022-10-07T08:04:13.761Z,99491.31
2022-10-07T08:07:20.498Z,99497.00
2022-10-07T08:10:29.203Z,99494.91
2022-10-07T08:13:36.650Z,99495.19
2022-10-07T08:16:43.639Z,99504.38
2022-10-07T08:19:56.377Z,99492.41
2022-10-07T08:23:03.507Z,99485.69
2022-10-07T08:26:12.942Z,99485.13
2022-10-07T08:29:19.617Z,99479.38
2022-10-07T08:32:26.359Z,99469.34
2022-10-07T08:35:34.772Z,99466.25
2022-10-07T08:38:43.462Z,99464.25
2022-10-07T08:41:57.559Z,99472.44
2022-10-07T08:45:08.720Z,99465.00
2022-10-07T08:48:20.072Z,99464.63
2022-10-07T08:51:37.812Z,99460.69
2022-10-07T08:54:59.440Z,99458.50
2022-10-07T08:58:45.713Z,99459.56
2022-10-07T09:02:23.018Z,99448.38
2022-10-07T09:05:47.360Z,99454.84
2022-10-07T09:09:18.006Z,99441.09
2022-10-07T09:12:46.896Z,99452.84
2022-10-07T09:16:15.001Z,99450.56
2022-10-07T09:19:46.660Z,99445.72
2022-10-07T09:23:08.754Z,99439.91
2022-10-07T09:26:37.962Z,99447.38
2022-10-07T09:30:04.075Z,99446.94
2022-10-07T09:33:27.982Z,99435.94
2022-10-07T09:37:13.893Z,99435.06
2022-10-07T09:40:59.007Z,99427.16
2022-10-07T09:44:29.475Z,99423.44
2022-10-07T09:47:54.682Z,99417.28
2022-10-07T09:51:17.102Z,99417.28
2022-10-07T09:54:39.510Z,99420.75
2022-10-07T09:58:04.331Z,99412.53
2022-10-07T10:01:31.269Z,99406.19
2022-10-07T10:04:53.894Z,99409.56
2022-10-07T10:08:27.187Z,99408.22
2022-10-07T10:11:48.332Z,99407.25
2022-10-07T10:15:28.898Z,99402.56
2022-10-07T10:18:43.255Z,99392.66
2022-10-07T10:21:56.319Z,99385.69
2022-10-07T10:25:18.548Z,99388.88
2022-10-07T10:28:38.521Z,99380.94
2022-10-07T10:32:03.972Z,99371.28
2022-10-07T10:35:17.750Z,99373.19
2022-10-07T10:38:46.628Z,99367.69
2022-10-07T10:41:58.009Z,99365.56
2022-10-07T10:45:18.539Z,99356.97
2022-10-07T10:48:32.459Z,99355.41
2022-10-07T10:51:59.474Z,99352.91
2022-10-07T10:55:35.533Z,99342.06
2022-10-07T10:58:55.718Z,99334.63
2022-10-07T11:02:21.926Z,99332.06
2022-10-07T11:05:32.226Z,99327.78
2022-10-07T11:08:41.863Z,99318.19
2022-10-07T11:11:48.983Z,99310.97
2022-10-07T11:14:58.431Z,99307.56
2022-10-07T11:18:14.577Z,99295.72
2022-10-07T11:21:27.860Z,99291.81
2022-10-07T11:24:42.351Z,99285.75
2022-10-07T11:27:49.849Z,99271.75
2022-10-07T11:31:06.407Z,99275.47
2022-10-07T11:34:19.723Z,99269.66
2022-10-07T11:37:34.163Z,99256.28
2022-10-07T11:40:46.908Z,99249.28
2022-10-07T11:43:57.227Z,99245.88
2022-10-07T11:47:06.366Z,99243.34
2022-10-07T11:50:19.966Z,99235.28
2022-10-07T11:53:29.155Z,99236.00
2022-10-07T11:56:48.313Z,99235.88
2022-10-07T12:00:01.079Z,99224.31
2022-10-07T12:03:50.465Z,99220.16
2022-10-07T12:07:33.382Z,99221.84
2022-10-07T12:10:39.887Z,99221.84
2022-10-07T12:13:49.868Z,99213.66
2022-10-07T12:16:58.198Z,99209.81
2022-10-07T12:20:46.450Z,99194.06
2022-10-07T12:24:17.472Z,99193.59
2022-10-07T12:27:27.733Z,99190.47
2022-10-07T12:30:52.078Z,99183.91
2022-10-07T12:34:00.032Z,99180.16
2022-10-07T12:37:44.468Z,99186.59
2022-10-07T12:40:55.146Z,99172.09
2022-10-07T12:44:08.387Z,99171.03
2022-10-07T12:47:25.050Z,99159.94
2022-10-07T12:50:33.713Z,99159.59
2022-10-07T12:53:44.205Z,99154.53
2022-10-07T12:56:53.242Z,99155.72
2022-10-07T13:00:08.403Z,99156.97
2022-10-07T13:03:38.995Z,99147.31
2022-10-07T13:07:24.356Z,99141.97
2022-10-07T13:11:14.042Z,99133.53
2022-10-07T13:14:26.597Z,99132.56
2022-10-07T13:17:44.536Z,99122.31
2022-10-07T13:21:08.582Z,99124.50
2022-10-07T13:24:18.764Z,99118.09
2022-10-07T13:27:29.545Z,99105.41
2022-10-07T13:30:40.479Z,99101.38
2022-10-07T13:33:46.261Z,99095.81
2022-10-07T13:36:55.480Z,99093.38
2022-10-07T13:40:22.943Z,99085.41
2022-10-07T13:43:32.273Z,99082.75
2022-10-07T13:46:39.457Z,99074.28
2022-10-07T13:49:48.412Z,99074.03
2022-10-07T13:52:58.514Z,99068.47
2022-10-07T13:56:18.890Z,99055.88
2022-10-07T13:59:25.386Z,99057.06
2022-10-07T14:02:36.454Z,99044.31
2022-10-07T14:05:52.539Z,99052.59
2022-10-07T14:09:03.469Z,99041.81
2022-10-07T14:12:14.562Z,99041.03
2022-10-07T14:15:24.840Z,99031.56
2022-10-07T14:18:32.179Z,99027.75
2022-10-07T14:21:43.424Z,99026.22
2022-10-07T14:25:03.668Z,99016.91
2022-10-07T14:28:19.773Z,99000.22
2022-10-07T14:31:45.227Z,99009.72
2022-10-07T14:35:07.532Z,99004.28
2022-10-07T14:38:23.181Z,99001.44
2022-10-07T14:41:34.609Z,98998.31
2022-10-07T14:44:44.234Z,98996.56
2022-10-07T14:47:51.696Z,98988.25
2022-10-07T14:50:57.614Z,98984.59
2022-10-07T14:54:06.795Z,98982.53
2022-10-07T14:57:15.213Z,98991.94
2022-10-07T15:00:24.583Z,98988.56
2022-10-07T15:03:31.067Z,98987.88
2022-10-07T15:06:39.128Z,98980.94
2022-10-07T15:09:44.751Z,98979.00
2022-10-07T15:12:54.300Z,98972.56
2022-10-07T15:16:00.167Z,98971.22
2022-10-07T15:19:09.430Z,98969.84
2022-10-07T15:22:15.070Z,98972.06
2022-10-07T15:25:22.165Z,98967.03
2022-10-07T15:28:31.367Z,98965.94
2022-10-07T15:31:38.433Z,98959.06
2022-10-07T15:34:46.056Z,98962.94
2022-10-07T15:37:53.364Z,98958.38
2022-10-07T15:41:00.463Z,98953.78
2022-10-07T15:44:16.620Z,98952.84
2022-10-07T15:47:22.665Z,98955.25
2022-10-07T15:50:29.137Z,98954.31
2022-10-07T15:53:36.393Z,98951.66
2022-10-07T15:56:43.318Z,98944.63
2022-10-07T15:59:53.629Z,98939.06
2022-10-07T16:03:04.605Z,98946.19
2022-10-07T16:06:12.556Z,98940.75
2022-10-07T16:09:18.981Z,98944.13
2022-10-07T16:12:24.564Z,98946.53
2022-10-07T16:15:35.895Z,98939.28
2022-10-07T16:18:44.010Z,98939.13
2022-10-07T16:21:50.438Z,98933.91
2022-10-07T16:24:56.000Z,98933.09
2022-10-07T16:28:18.737Z,98927.03
2022-10-07T16:31:27.318Z,98929.63
2022-10-07T16:34:34.515Z,98931.16
2022-10-07T16:37:40.122Z,98926.53
2022-10-07T16:40:54.810Z,98915.56
2022-10-07T16:44:01.283Z,98925.63
2022-10-07T16:47:11.697Z,98925.56
2022-10-07T16:50:17.517Z,98917.53
2022-10-07T16:53:23.986Z,98916.50
2022-10-07T16:56:30.105Z,98912.59
2022-10-07T16:59:36.577Z,98913.25
2022-10-07T17:02:45.001Z,98912.00
2022-10-07T17:05:58.260Z,98917.72
2022-10-07T17:09:07.544Z,98915.72
2022-10-07T17:12:14.320Z,98909.19
2022-10-07T17:15:20.091Z,98907.91
2022-10-07T17:18:31.483Z,98910.03
2022-10-07T17:21:40.238Z,98905.25
2022-10-07T17:24:46.684Z,98907.50
2022-10-07T17:27:52.323Z,98907.72
2022-10-07T17:30:59.384Z,98899.25
2022-10-07T17:34:10.133Z,98903.03
2022-10-07T17:37:16.727Z,98899.00
2022-10-07T17:40:22.350Z,98901.75
2022-10-07T17:43:28.783Z,98897.50
2022-10-07T17:46:37.026Z,98902.38
2022-10-07T17:49:46.345Z,98904.50
2022-10-07T17:52:51.966Z,98909.00
2022-10-07T17:55:58.658Z,98908.47
2022-10-07T17:59:07.109Z,98896.63
2022-10-07T18:02:13.659Z,98888.28
2022-10-07T18:05:22.660Z,98885.19
2022-10-07T18:08:29.089Z,98881.09
2022-10-07T18:11:56.351Z,98880.53
2022-10-07T18:15:18.537Z,98873.75
2022-10-07T18:18:24.371Z,98877.56
2022-10-07T18:21:34.615Z,98873.31
2022-10-07T18:24:40.191Z,98877.97
2022-10-07T18:27:47.223Z,98872.88
2022-10-07T18:30:53.533Z,98869.69
2022-10-07T18:37:40.432Z,98866.69
2022-10-07T18:40:46.870Z,98853.81
2022-10-07T18:43:52.690Z,98855.78
2022-10-07T18:46:59.604Z,98854.19
2022-10-07T18:50:08.606Z,98859.59
2022-10-07T18:53:17.817Z,98858.84
2022-10-07T18:56:25.248Z,98849.31
2022-10-07T18:59:31.719Z,98849.31
2022-10-07T19:02:37.351Z,98856.69
2022-10-07T19:05:44.385Z,98846.63
2022-10-07T19:08:55.865Z,98846.03
2022-10-07T19:12:03.963Z,98844.75
2022-10-07T19:15:07.607Z,98845.91
2022-10-07T19:18:14.228Z,98840.84
2022-10-07T19:21:21.235Z,98844.59
2022-10-07T19:24:42.893Z,98836.91
2022-10-07T19:27:48.689Z,98831.91
2022-10-07T19:30:56.474Z,98830.28
2022-10-07T19:34:04.661Z,98830.22
2022-10-07T19:37:11.859Z,98821.47
2022-10-07T19:40:20.339Z,98826.72
2022-10-07T19:43:26.732Z,98823.34
2022-10-07T19:46:34.687Z,98830.53
2022-10-07T19:49:41.125Z,98831.53
2022-10-07T19:52:47.132Z,98821.09
2022-10-07T19:55:57.687Z,98823.91
2022-10-07T19:59:06.384Z,98826.84
2022-10-07T20:02:14.493Z,98817.34
2022-10-07T20:05:20.159Z,98821.13
2022-10-07T20:08:26.581Z,98823.00
2022-10-07T20:11:37.653Z,98825.06
2022-10-07T20:14:44.108Z,98818.31
2022-10-07T20:17:50.114Z,98819.34
2022-10-07T20:21:03.646Z,98809.75
2022-10-07T20:24:10.860Z,98817.00
2022-10-07T20:27:20.220Z,98808.50
2022-10-07T20:30:25.818Z,98806.00
2022-10-07T20:33:34.679Z,98809.56
2022-10-07T20:36:42.212Z,98806.28
2022-10-07T20:40:05.069Z,98807.22
2022-10-07T20:43:13.492Z,98804.00
2022-10-07T20:46:20.217Z,98796.22
2022-10-07T20:49:28.354Z,98791.19
2022-10-07T20:52:38.006Z,98800.97
2022-10-07T20:55:43.561Z,98795.88
2022-10-07T20:58:53.495Z,98800.50
2022-10-07T21:01:59.515Z,98802.28
2022-10-07T21:05:08.107Z,98804.94
2022-10-07T21:08:13.911Z,98798.91
2022-10-07T21:11:20.556Z,98795.59
2022-10-07T21:14:29.605Z,98803.63
2022-10-07T21:17:36.837Z,98804.66
2022-10-07T21:20:56.510Z,98803.78
2022-10-07T21:24:03.940Z,98796.06
2022-10-07T21:27:11.625Z,98797.00
2022-10-07T21:30:21.051Z,98806.72
2022-10-07T21:33:27.591Z,98791.94
2022-10-07T21:36:34.253Z,98796.38
2022-10-07T21:39:40.197Z,98797.22
2022-10-07T21:42:47.224Z,98802.50
2022-10-07T21:45:55.798Z,98793.81
2022-10-07T21:49:03.450Z,98797.41
2022-10-07T21:52:09.031Z,98791.28
2022-10-07T21:55:15.488Z,98786.94
2022-10-07T21:58:21.973Z,98788.06
2022-10-07T22:01:32.280Z,98782.13
2022-10-07T22:04:37.979Z,98779.69
2022-10-07T22:08:03.474Z,98765.03
2022-10-07T22:11:12.131Z,98779.41
2022-10-07T22:14:19.245Z,98768.28
2022-10-07T22:17:27.681Z,98775.50
2022-10-07T22:20:36.735Z,98766.13
2022-10-07T22:23:42.720Z,98762.91
2022-10-07T22:26:51.550Z,98764.69
2022-10-07T22:29:57.280Z,98768.38
2022-10-07T22:33:06.907Z,98757.16
2022-10-07T22:36:14.981Z,98760.06
2022-10-07T22:39:21.398Z,98754.97
2022-10-07T22:42:27.006Z,98753.47
2022-10-07T22:45:34.003Z,98747.47
2022-10-07T22:48:43.431Z,98743.31
2022-10-07T22:51:49.897Z,98748.75
2022-10-07T22:54:55.514Z,98747.13
2022-10-07T22:58:03.319Z,98745.47
2022-10-07T23:01:10.664Z,98748.28
2022-10-07T23:04:20.461Z,98734.38
2022-10-07T23:07:26.157Z,98733.69
2022-10-07T23:10:32.685Z,98734.72
2022-10-07T23:13:39.991Z,98732.31
2022-10-07T23:16:46.410Z,98730.72
2022-10-07T23:19:54.731Z,98734.38
2022-10-07T23:23:01.186Z,98721.41
2022-10-07T23:26:13.901Z,98724.19
2022-10-07T23:29:20.818Z,98719.13
2022-10-07T23:32:26.414Z,98719.22
2022-10-07T23:35:35.641Z,98714.88
2022-10-07T23:38:44.882Z,98722.13
2022-10-07T23:41:51.672Z,98723.03
2022-10-07T23:44:57.712Z,98714.28
2022-10-07T23:48:04.630Z,98714.41
2022-10-07T23:51:14.871Z,98710.97
2022-10-07T23:54:21.284Z,98707.44
2022-10-07T23:57:26.856Z,98710.91
